Time;durP1;ratioP1;P1;durP2;ratioP2;P2;SDS_P1;SDS_P2;PMS_P1;PMS_P2;Temp;Humidity;BMP_temperature;BMP_pressure;BME280_temperature;BME280_humidity;BME280_pressure;Samples;Min_cycle;Max_cycle;Signal;HPM_P1;HPM_P2
2021/07/05 00:02:15;;;;;;;29.10;15.45;;;;;;;;;;5011151;28;20108;-78
2021/07/05 00:04:42;;;;;;;32.55;16.08;;;;;;;;;;5025535;28;20120;-80
2021/07/05 00:07:07;;;;;;;28.02;15.82;;;;;;;;;;5010400;28;20053;-79
2021/07/05 00:09:34;;;;;;;29.02;16.05;;;;;;;;;;5025285;28;20119;-79
2021/07/05 00:12:01;;;;;;;28.35;15.30;;;;;;;;;;5009095;28;20036;-79
2021/07/05 00:14:26;;;;;;;32.53;15.45;;;;;;;;;;5008795;28;20034;-79
2021/07/05 00:16:52;;;;;;;27.23;14.95;;;;;;;;;;5010535;28;20108;-79
2021/07/05 00:19:18;;;;;;;25.10;14.32;;;;;;;;;;5010385;28;20038;-78
2021/07/05 00:21:43;;;;;;;28.55;13.85;;;;;;;;;;5010658;28;20036;-81
2021/07/05 00:24:09;;;;;;;29.95;15.00;;;;;;;;;;5010213;28;20363;-79
2021/07/05 00:26:34;;;;;;;24.48;13.75;;;;;;;;;;5009783;28;20528;-79
2021/07/05 00:29:00;;;;;;;26.30;14.90;;;;;;;;;;5010148;28;20037;-79
2021/07/05 00:31:26;;;;;;;26.60;13.68;;;;;;;;;;5009767;28;20084;-80
2021/07/05 00:33:52;;;;;;;24.90;13.65;;;;;;;;;;5010059;28;20034;-79
2021/07/05 00:36:17;;;;;;;21.63;12.85;;;;;;;;;;5009974;28;20374;-80
2021/07/05 00:38:43;;;;;;;27.05;17.17;;;;;;;;;;5009986;28;20030;-80
2021/07/05 00:41:09;;;;;;;26.95;14.40;;;;;;;;;;5025025;28;20125;-81
2021/07/05 00:43:34;;;;;;;23.27;12.88;;;;;;;;;;5024848;28;20026;-79
2021/07/05 00:46:00;;;;;;;21.80;13.13;;;;;;;;;;5009796;28;20041;-79
2021/07/05 00:48:26;;;;;;;21.83;12.93;;;;;;;;;;5009593;28;20038;-79
2021/07/05 00:50:52;;;;;;;25.58;12.48;;;;;;;;;;5009589;28;20026;-78
2021/07/05 00:53:18;;;;;;;23.20;12.30;;;;;;;;;;5009381;28;20026;-77
2021/07/05 00:55:45;;;;;;;21.88;11.88;;;;;;;;;;5009414;28;20040;-78
2021/07/05 00:58:10;;;;;;;17.88;11.30;;;;;;;;;;5009571;28;20458;-76
2021/07/05 01:00:36;;;;;;;19.88;11.23;;;;;;;;;;5009834;28;20068;-76
2021/07/05 01:03:03;;;;;;;22.58;10.60;;;;;;;;;;5009772;28;20463;-77
2021/07/05 01:05:29;;;;;;;20.85;11.85;;;;;;;;;;5009270;28;20119;-77
2021/07/05 01:07:55;;;;;;;25.95;12.07;;;;;;;;;;5009595;28;20084;-76
2021/07/05 01:10:23;;;;;;;21.30;11.68;;;;;;;;;;5009152;28;20034;-76
2021/07/05 01:12:51;;;;;;;17.98;10.20;;;;;;;;;;5009265;28;20266;-77
2021/07/05 01:15:20;;;;;;;17.98;10.73;;;;;;;;;;5009929;28;20045;-77
2021/07/05 01:17:46;;;;;;;19.55;10.70;;;;;;;;;;5009509;28;20286;-77
2021/07/05 01:20:14;;;;;;;23.90;11.45;;;;;;;;;;5009511;28;20032;-76
2021/07/05 01:22:40;;;;;;;16.58;10.23;;;;;;;;;;5009324;28;20378;-77
2021/07/05 01:25:11;;;;;;;19.75;11.15;;;;;;;;;;5009612;28;20037;-77
2021/07/05 01:27:36;;;;;;;17.70;10.23;;;;;;;;;;5009634;28;20041;-77
2021/07/05 01:30:04;;;;;;;19.90;11.35;;;;;;;;;;5009348;28;20026;-75
2021/07/05 01:32:29;;;;;;;20.17;12.00;;;;;;;;;;5024292;28;20478;-76
2021/07/05 01:34:55;;;;;;;18.48;11.00;;;;;;;;;;5024277;28;20036;-76
2021/07/05 01:37:20;;;;;;;21.55;10.95;;;;;;;;;;5008960;28;20028;-76
2021/07/05 01:39:46;;;;;;;20.73;10.57;;;;;;;;;;5007835;28;20034;-76
2021/07/05 01:42:11;;;;;;;18.08;10.85;;;;;;;;;;5009220;28;20029;-76
2021/07/05 01:44:37;;;;;;;21.10;10.65;;;;;;;;;;5024347;28;20080;-75
2021/07/05 01:47:03;;;;;;;20.67;11.60;;;;;;;;;;5009306;28;20034;-76
2021/07/05 01:49:29;;;;;;;15.98;10.48;;;;;;;;;;5024178;28;20080;-76
2021/07/05 01:51:54;;;;;;;25.55;11.40;;;;;;;;;;5024253;28;20394;-76
2021/07/05 01:54:21;;;;;;;20.38;11.13;;;;;;;;;;5009100;28;20438;-76
2021/07/05 01:56:46;;;;;;;21.63;10.60;;;;;;;;;;5007594;28;20547;-76
2021/07/05 01:59:12;;;;;;;20.58;10.98;;;;;;;;;;5009293;28;20034;-77
2021/07/05 02:01:39;;;;;;;20.15;11.52;;;;;;;;;;5008788;28;20057;-77
2021/07/05 02:04:08;;;;;;;19.65;10.23;;;;;;;;;;5009263;28;20033;-77
2021/07/05 02:06:34;;;;;;;28.58;12.32;;;;;;;;;;5007342;28;20030;-77
2021/07/05 02:09:03;;;;;;;17.42;10.57;;;;;;;;;;5007626;28;20117;-77
2021/07/05 02:11:29;;;;;;;18.15;11.20;;;;;;;;;;5007422;28;20380;-77
2021/07/05 02:13:54;;;;;;;25.42;11.95;;;;;;;;;;5007595;28;20061;-76
2021/07/05 02:16:20;;;;;;;18.92;11.30;;;;;;;;;;5023924;28;20034;-77
2021/07/05 02:18:46;;;;;;;19.55;11.35;;;;;;;;;;5009022;28;20033;-76
2021/07/05 02:21:11;;;;;;;18.58;11.10;;;;;;;;;;5008971;28;20250;-75
2021/07/05 02:23:38;;;;;;;19.48;10.77;;;;;;;;;;5009919;28;20156;-75
2021/07/05 02:26:06;;;;;;;16.23;10.10;;;;;;;;;;5027478;28;20029;-75
2021/07/05 02:28:36;;;;;;;17.25;9.73;;;;;;;;;;5011416;28;20095;-75
2021/07/05 02:31:04;;;;;;;21.45;10.93;;;;;;;;;;5011039;28;20049;-75
2021/07/05 02:33:32;;;;;;;14.50;10.02;;;;;;;;;;5010721;28;20488;-75
2021/07/05 02:36:06;;;;;;;16.83;10.15;;;;;;;;;;5011992;28;20378;-75
2021/07/05 02:38:34;;;;;;;14.07;9.07;;;;;;;;;;5011846;28;20470;-74
2021/07/05 02:41:02;;;;;;;14.60;8.82;;;;;;;;;;5012131;28;20037;-75
2021/07/05 02:43:28;;;;;;;15.35;7.72;;;;;;;;;;5010462;28;20128;-75
2021/07/05 02:45:55;;;;;;;12.93;8.10;;;;;;;;;;4994392;28;20482;-76
2021/07/05 02:48:23;;;;;;;16.33;8.27;;;;;;;;;;5011852;28;20100;-76
2021/07/05 02:50:51;;;;;;;12.48;6.55;;;;;;;;;;5010512;28;20029;-76
2021/07/05 02:53:17;;;;;;;11.95;6.53;;;;;;;;;;5011668;28;20180;-76
2021/07/05 02:55:42;;;;;;;12.52;6.88;;;;;;;;;;5010054;28;20452;-76
2021/07/05 02:58:08;;;;;;;10.18;6.65;;;;;;;;;;5010260;28;20566;-76
2021/07/05 03:00:37;;;;;;;10.27;6.32;;;;;;;;;;5012006;28;20047;-78
2021/07/05 03:03:03;;;;;;;8.48;5.90;;;;;;;;;;5010305;28;20283;-78
2021/07/05 03:05:31;;;;;;;14.20;6.05;;;;;;;;;;5010077;28;20022;-78
2021/07/05 03:07:57;;;;;;;14.88;5.28;;;;;;;;;;5009923;28;20490;-79
2021/07/05 03:10:26;;;;;;;10.40;5.32;;;;;;;;;;5011670;28;20040;-80
2021/07/05 03:12:52;;;;;;;8.48;5.13;;;;;;;;;;5010113;28;20534;-79
2021/07/05 03:15:19;;;;;;;8.80;4.78;;;;;;;;;;5010223;28;20022;-79
2021/07/05 03:17:46;;;;;;;8.38;4.80;;;;;;;;;;5011294;28;20036;-78
2021/07/05 03:20:20;;;;;;;8.93;5.43;;;;;;;;;;5011411;28;20021;-78
2021/07/05 03:22:46;;;;;;;5.82;4.65;;;;;;;;;;5009746;28;20113;-79
2021/07/05 03:25:15;;;;;;;6.30;4.13;;;;;;;;;;5011196;28;20034;-80
2021/07/05 03:27:41;;;;;;;7.90;4.78;;;;;;;;;;5010939;28;20113;-78
2021/07/05 03:30:08;;;;;;;6.40;4.28;;;;;;;;;;5011031;28;20033;-78
2021/07/05 03:32:35;;;;;;;8.18;4.57;;;;;;;;;;5010796;28;20026;-79
2021/07/05 03:35:02;;;;;;;5.38;4.60;;;;;;;;;;5025693;28;20116;-79
2021/07/05 03:37:28;;;;;;;6.25;4.22;;;;;;;;;;5009303;28;20065;-77
2021/07/05 03:39:53;;;;;;;10.70;5.05;;;;;;;;;;5010799;28;20053;-80
2021/07/05 03:42:18;;;;;;;9.45;4.15;;;;;;;;;;5010919;28;20018;-78
2021/07/05 03:44:44;;;;;;;10.00;5.72;;;;;;;;;;5009353;28;20529;-79
2021/07/05 03:47:10;;;;;;;8.07;4.43;;;;;;;;;;5010621;28;20514;-79
2021/07/05 03:49:35;;;;;;;8.65;5.05;;;;;;;;;;5010683;28;20083;-79
2021/07/05 03:52:01;;;;;;;10.32;5.43;;;;;;;;;;5009656;28;20402;-79
2021/07/05 03:54:27;;;;;;;8.00;4.97;;;;;;;;;;5010946;28;20390;-79
2021/07/05 03:56:52;;;;;;;8.90;4.95;;;;;;;;;;5009211;28;20046;-78
2021/07/05 03:59:18;;;;;;;9.77;4.75;;;;;;;;;;5009264;28;20034;-79
2021/07/05 04:01:43;;;;;;;9.05;5.75;;;;;;;;;;5010575;28;20482;-79
2021/07/05 04:04:09;;;;;;;9.38;4.97;;;;;;;;;;5010441;28;20527;-78
2021/07/05 04:06:34;;;;;;;7.70;5.10;;;;;;;;;;5010268;28;20026;-79
2021/07/05 04:09:02;;;;;;;8.35;5.10;;;;;;;;;;5008938;28;20382;-79
2021/07/05 04:11:29;;;;;;;12.18;5.25;;;;;;;;;;5009135;28;20041;-79
2021/07/05 04:13:55;;;;;;;12.50;5.10;;;;;;;;;;5009144;28;20076;-78
2021/07/05 04:16:20;;;;;;;8.40;4.80;;;;;;;;;;5010295;28;20022;-78
2021/07/05 04:18:46;;;;;;;9.95;4.97;;;;;;;;;;5010122;28;20033;-79
2021/07/05 04:21:11;;;;;;;12.48;4.88;;;;;;;;;;5010159;28;20427;-79
2021/07/05 04:23:37;;;;;;;21.75;7.38;;;;;;;;;;5009777;28;20557;-79
2021/07/05 04:26:02;;;;;;;10.40;6.38;;;;;;;;;;5010162;28;20022;-78
2021/07/05 04:28:29;;;;;;;18.40;5.38;;;;;;;;;;5008874;28;20073;-79
2021/07/05 04:30:54;;;;;;;14.77;5.20;;;;;;;;;;5009996;28;20512;-79
2021/07/05 04:33:20;;;;;;;10.30;5.10;;;;;;;;;;5010140;28;20034;-78
2021/07/05 04:35:45;;;;;;;8.70;4.88;;;;;;;;;;5008672;28;20602;-79
2021/07/05 04:38:11;;;;;;;12.18;6.53;;;;;;;;;;5009998;28;20030;-79
2021/07/05 04:40:39;;;;;;;11.68;5.15;;;;;;;;;;5009871;28;20029;-79
2021/07/05 04:43:05;;;;;;;13.38;5.57;;;;;;;;;;5009793;28;20036;-79
2021/07/05 04:45:32;;;;;;;11.70;5.10;;;;;;;;;;5007663;28;20079;-78
2021/07/05 04:48:01;;;;;;;15.00;6.18;;;;;;;;;;5009764;28;20033;-78
2021/07/05 04:50:28;;;;;;;9.90;4.65;;;;;;;;;;5008170;28;20041;-78
2021/07/05 04:52:54;;;;;;;10.43;5.43;;;;;;;;;;5007966;28;20496;-78
2021/07/05 04:55:21;;;;;;;8.07;5.38;;;;;;;;;;5008255;28;20124;-79
2021/07/05 04:57:48;;;;;;;11.20;5.60;;;;;;;;;;5008145;28;20441;-79
2021/07/05 05:00:18;;;;;;;9.00;5.25;;;;;;;;;;5009859;28;20084;-78
2021/07/05 05:02:43;;;;;;;10.73;6.30;;;;;;;;;;5009898;28;20053;-78
2021/07/05 05:05:10;;;;;;;7.80;4.97;;;;;;;;;;5009811;28;20491;-79
2021/07/05 05:07:36;;;;;;;12.10;5.93;;;;;;;;;;5007948;28;20520;-78
2021/07/05 05:10:10;;;;;;;19.83;6.18;;;;;;;;;;5008107;28;20179;-79
2021/07/05 05:12:36;;;;;;;11.10;5.65;;;;;;;;;;5008979;28;20079;-78
2021/07/05 05:15:04;;;;;;;9.68;5.13;;;;;;;;;;5008156;28;20129;-78
2021/07/05 05:17:30;;;;;;;8.63;5.72;;;;;;;;;;5008104;28;20121;-79
2021/07/05 05:19:56;;;;;;;7.13;4.97;;;;;;;;;;5009828;28;20181;-79
2021/07/05 05:22:21;;;;;;;11.48;5.22;;;;;;;;;;5009285;28;20466;-80
2021/07/05 05:24:47;;;;;;;9.77;6.05;;;;;;;;;;5007733;28;20109;-79
2021/07/05 05:27:13;;;;;;;10.02;5.22;;;;;;;;;;5009292;28;20506;-79
2021/07/05 05:29:39;;;;;;;8.52;6.15;;;;;;;;;;5007924;28;20060;-79
2021/07/05 05:32:05;;;;;;;13.15;5.28;;;;;;;;;;5008191;28;20029;-81
2021/07/05 05:34:30;;;;;;;10.57;5.40;;;;;;;;;;5024688;28;20119;-80
2021/07/05 05:36:56;;;;;;;8.40;5.03;;;;;;;;;;5007935;28;20076;-81
2021/07/05 05:39:22;;;;;;;11.30;5.90;;;;;;;;;;5009312;28;20471;-79
2021/07/05 05:41:47;;;;;;;9.70;5.32;;;;;;;;;;5009163;28;20104;-79
2021/07/05 05:44:13;;;;;;;11.63;7.07;;;;;;;;;;5009207;28;20470;-79
2021/07/05 05:46:39;;;;;;;10.23;5.97;;;;;;;;;;5008751;28;20513;-78
2021/07/05 05:49:05;;;;;;;9.38;5.70;;;;;;;;;;5008939;28;20088;-80
2021/07/05 05:51:40;;;;;;;9.05;5.50;;;;;;;;;;5009128;28;20034;-78
2021/07/05 05:54:08;;;;;;;10.10;5.57;;;;;;;;;;5009297;28;20029;-79
2021/07/05 05:56:36;;;;;;;13.38;5.10;;;;;;;;;;5007657;28;20029;-78
2021/07/05 05:59:05;;;;;;;11.68;5.65;;;;;;;;;;5012820;28;20482;-78
2021/07/05 06:01:33;;;;;;;10.00;4.93;;;;;;;;;;5028058;28;20018;-78
2021/07/05 06:03:58;;;;;;;9.70;5.63;;;;;;;;;;5011222;28;20030;-79
2021/07/05 06:06:24;;;;;;;11.93;6.00;;;;;;;;;;5011193;28;20532;-79
2021/07/05 06:08:50;;;;;;;8.23;5.50;;;;;;;;;;5011964;28;20438;-80
2021/07/05 06:11:16;;;;;;;7.97;5.22;;;;;;;;;;5011092;28;20104;-78
2021/07/05 06:13:42;;;;;;;11.10;5.57;;;;;;;;;;5012416;28;20026;-78
2021/07/05 06:16:08;;;;;;;8.32;5.60;;;;;;;;;;5012721;28;20112;-78
2021/07/05 06:18:34;;;;;;;8.35;5.07;;;;;;;;;;5012548;28;20025;-79
2021/07/05 06:20:59;;;;;;;8.15;5.95;;;;;;;;;;5010977;28;20257;-78
2021/07/05 06:23:26;;;;;;;11.35;4.72;;;;;;;;;;5012976;28;20101;-79
2021/07/05 06:25:56;;;;;;;6.65;4.70;;;;;;;;;;5010966;28;20310;-79
2021/07/05 06:28:24;;;;;;;9.68;5.47;;;;;;;;;;5010946;28;20075;-80
2021/07/05 06:30:50;;;;;;;8.88;4.90;;;;;;;;;;4994455;28;20034;-79
2021/07/05 06:33:17;;;;;;;10.55;5.40;;;;;;;;;;5010577;28;20026;-79
2021/07/05 06:35:44;;;;;;;8.18;5.40;;;;;;;;;;5011191;28;20105;-79
2021/07/05 06:38:11;;;;;;;7.95;5.90;;;;;;;;;;5011866;28;20531;-79
2021/07/05 06:40:37;;;;;;;7.78;5.40;;;;;;;;;;5011692;28;20040;-80
2021/07/05 06:43:03;;;;;;;10.82;5.82;;;;;;;;;;5011962;28;20033;-78
2021/07/05 06:45:30;;;;;;;13.20;5.40;;;;;;;;;;5012037;28;20026;-79
2021/07/05 06:47:55;;;;;;;11.50;6.97;;;;;;;;;;5010452;28;20466;-80
2021/07/05 06:50:21;;;;;;;8.90;5.75;;;;;;;;;;5010515;28;20426;-79
2021/07/05 06:52:47;;;;;;;7.85;4.97;;;;;;;;;;5011316;28;20038;-79
2021/07/05 06:55:13;;;;;;;7.70;5.55;;;;;;;;;;5010209;28;20030;-79
2021/07/05 06:57:40;;;;;;;8.13;5.38;;;;;;;;;;5015012;28;20034;-79
2021/07/05 07:00:13;;;;;;;7.90;5.95;;;;;;;;;;5010718;28;20113;-79
2021/07/05 07:02:39;;;;;;;8.98;5.43;;;;;;;;;;5011652;28;20029;-79
2021/07/05 07:05:16;;;;;;;8.82;5.40;;;;;;;;;;5010298;28;20022;-79
2021/07/05 07:07:44;;;;;;;7.88;5.10;;;;;;;;;;5011147;28;20022;-81
2021/07/05 07:10:11;;;;;;;13.52;5.18;;;;;;;;;;5009353;28;20065;-80
2021/07/05 07:12:38;;;;;;;12.43;5.57;;;;;;;;;;5011395;28;20029;-80
2021/07/05 07:15:06;;;;;;;9.60;5.75;;;;;;;;;;5011381;28;20032;-79
2021/07/05 07:17:39;;;;;;;8.90;5.38;;;;;;;;;;5011177;28;20030;-79
2021/07/05 07:20:10;;;;;;;9.02;5.53;;;;;;;;;;5010171;28;20076;-79
2021/07/05 07:22:37;;;;;;;6.97;5.18;;;;;;;;;;5011703;28;20025;-81
2021/07/05 07:25:10;;;;;;;6.63;5.10;;;;;;;;;;5011725;28;20030;-80
2021/07/05 07:27:35;;;;;;;12.23;5.78;;;;;;;;;;5011167;28;20034;-78
2021/07/05 07:30:01;;;;;;;10.13;5.35;;;;;;;;;;5009401;28;20069;-78
2021/07/05 07:32:27;;;;;;;6.68;5.20;;;;;;;;;;5011008;28;20029;-79
2021/07/05 07:34:52;;;;;;;8.95;5.70;;;;;;;;;;5009638;28;20034;-80
2021/07/05 07:37:18;;;;;;;7.80;5.72;;;;;;;;;;5011503;28;20110;-77
2021/07/05 07:39:46;;;;;;;6.90;5.28;;;;;;;;;;5010669;28;20080;-79
2021/07/05 07:42:12;;;;;;;7.13;4.95;;;;;;;;;;5011061;28;20437;-78
2021/07/05 07:44:38;;;;;;;8.45;4.88;;;;;;;;;;5010598;28;20033;-79
2021/07/05 07:47:05;;;;;;;9.02;5.20;;;;;;;;;;5009165;28;20113;-80
2021/07/05 07:49:32;;;;;;;8.15;5.30;;;;;;;;;;5008999;28;20026;-78
2021/07/05 07:52:01;;;;;;;9.48;5.60;;;;;;;;;;5009075;28;20812;-79
2021/07/05 07:54:26;;;;;;;7.72;5.57;;;;;;;;;;5010538;28;20025;-80
2021/07/05 07:56:53;;;;;;;7.93;4.82;;;;;;;;;;5009166;28;20046;-79
2021/07/05 07:59:19;;;;;;;7.38;4.97;;;;;;;;;;5010812;28;20056;-79
2021/07/05 08:01:45;;;;;;;8.18;5.28;;;;;;;;;;5009012;28;20083;-79
2021/07/05 08:04:11;;;;;;;8.38;4.90;;;;;;;;;;5008799;28;20080;-78
2021/07/05 08:06:36;;;;;;;7.25;4.95;;;;;;;;;;5010227;28;20548;-78
2021/07/05 08:09:04;;;;;;;8.07;5.57;;;;;;;;;;5010420;28;20033;-79
2021/07/05 08:11:31;;;;;;;10.73;5.05;;;;;;;;;;5010257;28;20049;-80
2021/07/05 08:13:57;;;;;;;7.57;4.70;;;;;;;;;;5010272;28;20025;-79
2021/07/05 08:16:22;;;;;;;6.97;4.90;;;;;;;;;;5010218;28;20018;-79
2021/07/05 08:18:48;;;;;;;5.68;4.40;;;;;;;;;;5010088;28;20057;-80
2021/07/05 08:21:15;;;;;;;8.52;5.50;;;;;;;;;;5010406;28;20022;-82
2021/07/05 08:23:41;;;;;;;8.93;5.28;;;;;;;;;;5009127;28;20129;-74
2021/07/05 08:26:06;;;;;;;6.70;4.57;;;;;;;;;;5010536;28;20458;-79
2021/07/05 08:28:32;;;;;;;6.25;4.53;;;;;;;;;;5008772;28;20034;-79
2021/07/05 08:31:00;;;;;;;7.80;4.60;;;;;;;;;;5012518;28;20250;-79
2021/07/05 08:33:26;;;;;;;9.60;5.03;;;;;;;;;;5014080;28;20407;-79
2021/07/05 08:35:51;;;;;;;9.43;5.60;;;;;;;;;;5009824;28;20104;-80
2021/07/05 08:38:17;;;;;;;6.93;4.88;;;;;;;;;;5009327;28;20032;-79
2021/07/05 08:40:42;;;;;;;8.90;5.28;;;;;;;;;;5009285;28;20033;-79
2021/07/05 08:43:09;;;;;;;7.18;4.50;;;;;;;;;;5009923;28;20033;-78
2021/07/05 08:45:36;;;;;;;9.48;4.18;;;;;;;;;;5008248;28;20029;-79
2021/07/05 08:48:03;;;;;;;6.20;4.80;;;;;;;;;;5010013;28;20474;-79
2021/07/05 08:50:29;;;;;;;5.03;4.28;;;;;;;;;;5010455;28;20091;-80
2021/07/05 08:52:56;;;;;;;10.43;5.82;;;;;;;;;;5010072;28;20072;-80
2021/07/05 08:55:25;;;;;;;8.25;4.57;;;;;;;;;;5009897;28;20502;-79
2021/07/05 08:57:52;;;;;;;11.40;4.90;;;;;;;;;;5008061;28;20164;-77
2021/07/05 09:00:22;;;;;;;8.65;4.80;;;;;;;;;;5009888;28;20770;-80
2021/07/05 09:02:49;;;;;;;8.52;4.30;;;;;;;;;;5009562;28;20018;-79
2021/07/05 09:05:16;;;;;;;6.20;4.55;;;;;;;;;;5009376;28;20133;-79
2021/07/05 09:07:55;;;;;;;5.35;4.85;;;;;;;;;;5008035;28;20036;-80
2021/07/05 09:10:21;;;;;;;8.30;4.60;;;;;;;;;;5009822;28;20018;-82
2021/07/05 09:13:29;;;;;;;9.38;5.05;;;;;;;;;;5007713;28;20053;-80
2021/07/05 09:16:00;;;;;;;5.20;4.70;;;;;;;;;;5005557;28;20102;-80
2021/07/05 09:18:47;;;;;;;5.35;4.53;;;;;;;;;;5009230;28;20026;-79
2021/07/05 09:21:24;;;;;;;6.13;4.72;;;;;;;;;;5008119;28;20113;-78
2021/07/05 09:24:00;;;;;;;5.78;4.50;;;;;;;;;;5008091;28;20415;-78
2021/07/05 09:26:29;;;;;;;6.53;4.53;;;;;;;;;;5010337;28;20425;-79
2021/07/05 09:28:56;;;;;;;7.20;4.22;;;;;;;;;;5010172;28;20030;-79
2021/07/05 09:31:40;;;;;;;7.25;4.13;;;;;;;;;;5009998;28;20489;-80
2021/07/05 09:34:21;;;;;;;7.88;4.00;;;;;;;;;;5011788;28;20116;-78
2021/07/05 09:36:48;;;;;;;4.83;4.27;;;;;;;;;;5028402;28;20474;-80
2021/07/05 09:39:17;;;;;;;5.63;3.90;;;;;;;;;;5011810;28;20313;-78
2021/07/05 09:41:43;;;;;;;5.28;4.45;;;;;;;;;;5013495;28;20029;-81
2021/07/05 09:44:17;;;;;;;6.28;4.65;;;;;;;;;;5012530;28;20417;-80
2021/07/05 09:46:52;;;;;;;10.95;4.55;;;;;;;;;;5013068;28;20029;-77
2021/07/05 09:49:20;;;;;;;6.15;4.03;;;;;;;;;;5011329;28;20041;-80
2021/07/05 09:52:17;;;;;;;7.35;4.32;;;;;;;;;;5028050;28;20022;-75
2021/07/05 09:54:45;;;;;;;5.60;3.30;;;;;;;;;;5012189;28;20074;-78
2021/07/05 09:57:35;;;;;;;4.10;3.58;;;;;;;;;;5012849;28;20427;-80
2021/07/05 10:00:06;;;;;;;4.97;4.47;;;;;;;;;;5011069;28;20359;-80
2021/07/05 10:02:33;;;;;;;5.03;3.55;;;;;;;;;;5027605;28;20021;-80
2021/07/05 10:05:15;;;;;;;5.75;3.53;;;;;;;;;;5010976;28;20136;-80
2021/07/05 10:07:41;;;;;;;5.15;3.40;;;;;;;;;;5011143;28;20034;-80
2021/07/05 10:10:20;;;;;;;6.32;3.67;;;;;;;;;;5010856;28;20053;-79
2021/07/05 10:12:55;;;;;;;6.30;3.30;;;;;;;;;;5012593;28;20025;-81
2021/07/05 10:15:24;;;;;;;6.25;3.17;;;;;;;;;;5014544;28;20033;-80
2021/07/05 10:17:51;;;;;;;4.88;3.38;;;;;;;;;;5012327;28;20026;-80
2021/07/05 10:20:25;;;;;;;6.28;3.28;;;;;;;;;;5012334;28;20030;-81
2021/07/05 10:22:56;;;;;;;8.60;2.70;;;;;;;;;;5011722;28;20029;-80
2021/07/05 10:25:23;;;;;;;3.95;3.30;;;;;;;;;;5012384;28;20029;-80
2021/07/05 10:27:50;;;;;;;6.55;3.17;;;;;;;;;;5010473;28;20022;-79
2021/07/05 10:30:16;;;;;;;3.70;3.30;;;;;;;;;;5010978;28;20382;-80
2021/07/05 10:32:43;;;;;;;3.70;2.80;;;;;;;;;;5010613;28;20029;-80
2021/07/05 10:35:11;;;;;;;3.50;3.20;;;;;;;;;;5011716;28;20515;-80
2021/07/05 10:37:42;;;;;;;3.80;3.50;;;;;;;;;;5011970;28;20029;-80
2021/07/05 10:40:10;;;;;;;5.18;3.53;;;;;;;;;;5010403;28;20087;-82
2021/07/05 10:42:42;;;;;;;4.63;3.55;;;;;;;;;;5012473;28;20049;-80
2021/07/05 10:45:17;;;;;;;;;;;;;;;;;;5009821;28;20087;-80
2021/07/05 10:47:55;;;;;;;3.70;3.40;;;;;;;;;;5012288;28;19920;-79
2021/07/05 10:50:46;;;;;;;4.72;3.50;;;;;;;;;;5010257;28;20045;-80
2021/07/05 10:53:17;;;;;;;3.53;2.65;;;;;;;;;;5011243;28;20137;-80
2021/07/05 10:55:48;;;;;;;5.75;3.60;;;;;;;;;;5010473;28;20033;-80
2021/07/05 10:58:27;;;;;;;6.10;3.38;;;;;;;;;;5011545;28;20129;-78
2021/07/05 11:00:55;;;;;;;5.78;2.78;;;;;;;;;;5010190;28;20034;-80
2021/07/05 11:03:36;;;;;;;3.90;3.50;;;;;;;;;;5012070;28;20021;-80
2021/07/05 11:06:23;;;;;;;5.63;3.55;;;;;;;;;;5026666;28;20050;-79
2021/07/05 11:08:51;;;;;;;2.90;2.63;;;;;;;;;;5003665;28;20061;-79
2021/07/05 11:11:28;;;;;;;10.75;4.18;;;;;;;;;;5026664;28;20036;-80
2021/07/05 11:14:15;;;;;;;3.72;2.75;;;;;;;;;;5011339;28;20414;-81
2021/07/05 11:17:05;;;;;;;5.80;2.80;;;;;;;;;;5009875;28;20105;-78
2021/07/05 11:19:45;;;;;;;3.70;2.85;;;;;;;;;;5011663;28;20057;-80
2021/07/05 11:22:16;;;;;;;10.07;3.05;;;;;;;;;;5011005;28;20402;-80
2021/07/05 11:24:46;;;;;;;6.38;3.00;;;;;;;;;;5011120;28;20113;-79
2021/07/05 11:27:39;;;;;;;6.25;2.60;;;;;;;;;;5026198;28;20359;-80
2021/07/05 11:30:17;;;;;;;3.30;2.63;;;;;;;;;;5009496;28;20083;-80
2021/07/05 11:32:51;;;;;;;6.35;3.25;;;;;;;;;;5011062;28;20037;-79
2021/07/05 11:35:38;;;;;;;2.55;2.35;;;;;;;;;;5017022;28;20127;-79
2021/07/05 11:38:23;;;;;;;2.47;2.28;;;;;;;;;;5029927;28;20029;-79
2021/07/05 11:40:52;;;;;;;4.55;2.20;;;;;;;;;;5011331;28;20402;-81
2021/07/05 11:43:54;;;;;;;5.50;2.70;;;;;;;;;;5009288;28;20320;-80
2021/07/05 11:46:26;;;;;;;5.93;2.67;;;;;;;;;;5010518;28;20495;-80
2021/07/05 11:48:52;;;;;;;3.50;2.40;;;;;;;;;;5026049;28;20037;-80
2021/07/05 11:51:18;;;;;;;2.40;2.20;;;;;;;;;;5025817;28;20026;-80
2021/07/05 11:53:56;;;;;;;2.47;2.28;;;;;;;;;;5025681;28;20462;-80
2021/07/05 11:56:43;;;;;;;3.58;2.30;;;;;;;;;;5010105;28;20025;-79
2021/07/05 11:59:28;;;;;;;2.83;2.15;;;;;;;;;;5025305;28;20050;-80
2021/07/05 12:01:59;;;;;;;5.65;2.50;;;;;;;;;;5010430;28;20026;-80
2021/07/05 12:04:36;;;;;;;4.25;2.38;;;;;;;;;;5010736;28;20477;-80
2021/07/05 12:07:04;;;;;;;4.70;2.90;;;;;;;;;;5008941;28;20363;-79
2021/07/05 12:09:31;;;;;;;2.70;1.90;;;;;;;;;;5009976;28;20099;-80
2021/07/05 12:11:58;;;;;;;8.55;2.10;;;;;;;;;;5009761;28;20076;-80
2021/07/05 12:14:27;;;;;;;1.98;1.70;;;;;;;;;;5008509;28;20039;-79
2021/07/05 12:17:01;;;;;;;4.07;2.00;;;;;;;;;;5010752;28;20080;-79
2021/07/05 12:19:31;;;;;;;3.97;2.30;;;;;;;;;;5010044;28;20037;-78
2021/07/05 12:22:02;;;;;;;5.13;2.63;;;;;;;;;;5009949;28;20026;-78
2021/07/05 12:24:30;;;;;;;3.90;2.40;;;;;;;;;;5009674;28;20064;-76
2021/07/05 12:26:59;;;;;;;4.65;2.30;;;;;;;;;;5008281;28;20145;-76
2021/07/05 12:29:32;;;;;;;3.85;2.10;;;;;;;;;;5008884;28;20041;-77
2021/07/05 12:32:01;;;;;;;4.20;2.35;;;;;;;;;;5009765;28;20044;-77
2021/07/05 12:34:51;;;;;;;6.15;2.03;;;;;;;;;;5024812;28;20723;-77
2021/07/05 12:37:42;;;;;;;6.93;2.40;;;;;;;;;;5009720;28;20048;-76
2021/07/05 12:40:13;;;;;;;7.17;3.13;;;;;;;;;;5024731;28;20068;-77
2021/07/05 12:42:40;;;;;;;5.13;2.33;;;;;;;;;;5024770;28;20021;-78
2021/07/05 12:45:27;;;;;;;3.55;2.20;;;;;;;;;;5009590;28;20022;-78
2021/07/05 12:48:16;;;;;;;2.53;1.90;;;;;;;;;;5009922;28;20030;-78
2021/07/05 12:50:49;;;;;;;4.18;2.67;;;;;;;;;;5008596;28;20038;-76
2021/07/05 12:53:22;;;;;;;7.07;2.55;;;;;;;;;;5009446;28;20021;-78
2021/07/05 12:55:55;;;;;;;5.95;2.40;;;;;;;;;;5008182;28;20042;-76
2021/07/05 12:58:48;;;;;;;3.53;2.00;;;;;;;;;;5009349;28;20057;-78
2021/07/05 13:01:18;;;;;;;5.18;1.92;;;;;;;;;;5009288;28;20467;-78
2021/07/05 13:04:14;;;;;;;6.60;2.20;;;;;;;;;;5009552;28;20072;-78
2021/07/05 13:06:59;;;;;;;5.75;1.92;;;;;;;;;;4999650;28;20037;-77
2021/07/05 13:09:25;;;;;;;3.03;2.20;;;;;;;;;;5008915;28;20021;-77
2021/07/05 13:11:58;;;;;;;6.03;1.77;;;;;;;;;;5009221;28;20094;-78
2021/07/05 13:14:37;;;;;;;2.35;1.65;;;;;;;;;;5009509;28;20117;-78
2021/07/05 13:17:17;;;;;;;8.10;1.83;;;;;;;;;;5009442;28;20209;-77
2021/07/05 13:19:45;;;;;;;14.88;8.30;;;;;;;;;;5008163;28;20739;-78
2021/07/05 13:22:24;;;;;;;4.65;2.33;;;;;;;;;;5007868;28;20119;-78
2021/07/05 13:24:56;;;;;;;4.30;2.20;;;;;;;;;;5007520;28;20109;-77
2021/07/05 13:27:29;;;;;;;4.30;2.22;;;;;;;;;;5008982;28;20132;-77
2021/07/05 13:29:56;;;;;;;2.20;1.98;;;;;;;;;;5008599;28;20052;-77
2021/07/05 13:32:24;;;;;;;5.25;2.40;;;;;;;;;;5008978;28;20096;-77
2021/07/05 13:35:00;;;;;;;3.60;1.90;;;;;;;;;;5009307;28;20030;-77
2021/07/05 13:37:46;;;;;;;5.22;1.88;;;;;;;;;;5008357;28;20095;-77
2021/07/05 13:40:17;;;;;;;3.00;1.95;;;;;;;;;;5007616;28;20030;-77
2021/07/05 13:42:45;;;;;;;4.10;1.70;;;;;;;;;;5009249;28;20034;-77
2021/07/05 13:45:12;;;;;;;2.22;1.92;;;;;;;;;;5008970;28;20420;-78
2021/07/05 13:47:51;;;;;;;1.80;1.70;;;;;;;;;;5009018;28;20040;-78
2021/07/05 13:50:33;;;;;;;7.60;1.85;;;;;;;;;;5008038;28;20374;-77
2021/07/05 13:53:01;;;;;;;6.10;2.08;;;;;;;;;;5023965;28;20038;-77
2021/07/05 13:55:31;;;;;;;4.10;2.33;;;;;;;;;;5008020;28;20032;-77
2021/07/05 13:58:07;;;;;;;3.40;2.90;;;;;;;;;;5009446;28;20034;-77
2021/07/05 14:00:47;;;;;;;4.18;1.90;;;;;;;;;;5024262;28;20470;-77
2021/07/05 14:03:14;;;;;;;;;;;;;;;;;;5009566;28;20030;-77
2021/07/05 14:05:41;;;;;;;3.95;1.85;;;;;;;;;;5007997;28;19913;-77
2021/07/05 14:08:08;;;;;;;3.63;1.98;;;;;;;;;;5007303;28;20064;-77
2021/07/05 14:10:37;;;;;;;2.50;2.05;;;;;;;;;;5009076;28;20026;-77
2021/07/05 14:13:04;;;;;;;3.78;1.77;;;;;;;;;;5008596;28;20030;-77
2021/07/05 14:15:29;;;;;;;1.83;1.60;;;;;;;;;;5007745;28;20389;-79
2021/07/05 14:17:55;;;;;;;2.00;1.52;;;;;;;;;;5009071;28;20022;-76
2021/07/05 14:20:21;;;;;;;3.70;2.08;;;;;;;;;;5012095;28;20409;-77
2021/07/05 14:22:47;;;;;;;1.88;1.73;;;;;;;;;;5012260;28;20038;-77
2021/07/05 14:25:15;;;;;;;2.78;2.00;;;;;;;;;;5010710;28;20080;-78
2021/07/05 14:27:41;;;;;;;3.72;2.28;;;;;;;;;;5012057;28;20026;-77
2021/07/05 14:30:09;;;;;;;1.88;1.77;;;;;;;;;;5010889;28;20030;-76
2021/07/05 14:32:36;;;;;;;4.30;2.10;;;;;;;;;;5012309;28;20076;-77
2021/07/05 14:35:03;;;;;;;3.78;1.92;;;;;;;;;;5012545;28;20037;-77
2021/07/05 14:37:29;;;;;;;5.20;1.80;;;;;;;;;;5010718;28;20022;-77
2021/07/05 14:39:54;;;;;;;8.98;2.40;;;;;;;;;;5011905;28;20030;-76
2021/07/05 14:42:20;;;;;;;3.08;2.05;;;;;;;;;;5011593;28;20029;-78
2021/07/05 14:44:47;;;;;;;2.97;1.65;;;;;;;;;;5011728;28;20032;-77
2021/07/05 14:47:12;;;;;;;5.30;1.58;;;;;;;;;;5011667;28;20105;-77
2021/07/05 14:49:39;;;;;;;2.10;1.90;;;;;;;;;;5011728;28;20101;-77